Corte Madera, CA

7:37 AM PDT on September 05, 2015 (GMT -0700)
Windward | | Change Station
CLOSE
Current Station
Personal Weather Station
Location: Corte Madera, CA
Elevation: 92 ft
Nearby Weather Stations

Elev 92 ft 37.92 °N, 122.50 °W | Updated 14 seconds ago

Clear
Clear
54.9 °F
Feels Like 54.9 °F
N
0.0
Wind Variable Wind from SW
Gusts 0.0 mph

Today
High -- | Low -- °F
--% Chance of Precip.
Yesterday
High -- | Low -- °F
Precip. -- in
6:43 AM 7:33 PM
Waning Gibbous, 48% visible
Pressure 29.95 in
Visibility 10.0 miles
Clouds Few 1600 ft
Dew Point 49 °F
Humidity 80%
Rainfall 0.00 in
Snow Depth Not available.
UV 1.0 out of 12
Pollen 8.90 out of 12
Air Quality Not available.
Flu Activity Not available.
METAR KOAK 051353Z 06004KT 10SM FEW016 11/09 A2995 RMK AO2 SLP142 T01110089
Pressure 29.95 in
Visibility 10.0 miles
Clouds Few 1600 ft
Dew Point 49 °F
Humidity 80%
Rainfall 0.00 in
Snow Depth Not available.
UV 1.0 out of 12
Pollen 8.90 out of 12
Air Quality Not available.
Flu Activity Not available.
METAR KOAK 051353Z 06004KT 10SM FEW016 11/09 A2995 RMK AO2 SLP142 T01110089

10-Day Weather Forecast

×

Almanac

Astronomy

Sep. 05, 2015 Rise Set
Actual Time
Civil Twilight
Nautical Twilight
Astronomical Twilight
Moon
Length of Visible Light
Length of Day
Tomorrow will be .
, % of the Moon is Illuminated

Today's Extremes

State Highs State Lows

Community

WunderPhotos

Upload Photos

1,852,475 photos uploaded!

WunderBlogs® & News

Nearby

Air Quality

  Air Quality AQ Index Pollutant
Not available.

Snow Depth

Station Depth Elevation

Earthquake Activity

City Distance Mag. Time & Date
Minimum magnitude displayed is 2.5.

Coastal Water Temperatures

Place Temperature

Stations

Nearby Weather Stations

Station Location Temp. Windchill Dew Point Humidity Wind Precip. Elev Updated Type